Terminal Aerodrome Forecast
Issued by NWS Houston/Galveston, TX

Home | Current Version | Previous Version | Text Only | Print | Product List | Glossary On
Versions: 1 2 3 4 5 6 7 8 9 10 11 12 13 14 15 16 17 18 19 20 21 22 23 24 25 26 27
000
FTUS44 KHGX 051517 AAB
TAFCLL
TAF AMD
KCLL 051517Z 0515/0612 14013G21KT P6SM BKN016
     FM051700 15015G23KT P6SM VCTS SCT025 BKN035CB
      TEMPO 0518/0521 5SM TSRA BKN025CB
     FM060200 13011KT P6SM VCSH SCT030
     FM060400 13010KT P6SM SCT015 BKN025=

USA.gov is the U.S. government's official web portal to all federal, state and local government web resources and services.